sensor_id;sensor_type;location;lat;lon;timestamp;pressure;altitude;pressure_sealevel;temperature
23208;BMP180;11773;52.570;13.052;2022-09-02T00:01:53;101996.00;;;20.50
23208;BMP180;11773;52.570;13.052;2022-09-02T00:04:25;101982.00;;;20.50
23208;BMP180;11773;52.570;13.052;2022-09-02T00:06:55;101977.00;;;20.40
23208;BMP180;11773;52.570;13.052;2022-09-02T00:09:26;101973.00;;;20.40
23208;BMP180;11773;52.570;13.052;2022-09-02T00:11:56;101958.00;;;20.40
23208;BMP180;11773;52.570;13.052;2022-09-02T00:14:30;101977.00;;;20.40
23208;BMP180;11773;52.570;13.052;2022-09-02T00:17:00;101962.00;;;20.30
23208;BMP180;11773;52.570;13.052;2022-09-02T00:19:31;101964.00;;;20.30
23208;BMP180;11773;52.570;13.052;2022-09-02T00:22:01;101959.00;;;20.30
23208;BMP180;11773;52.570;13.052;2022-09-02T00:24:32;101970.00;;;20.30
23208;BMP180;11773;52.570;13.052;2022-09-02T00:27:01;101956.00;;;20.30
23208;BMP180;11773;52.570;13.052;2022-09-02T00:29:31;101953.00;;;20.20
23208;BMP180;11773;52.570;13.052;2022-09-02T00:32:00;101961.00;;;20.20
23208;BMP180;11773;52.570;13.052;2022-09-02T00:34:30;101967.00;;;20.20
23208;BMP180;11773;52.570;13.052;2022-09-02T00:37:00;101968.00;;;20.20
23208;BMP180;11773;52.570;13.052;2022-09-02T00:39:29;101960.00;;;20.20
23208;BMP180;11773;52.570;13.052;2022-09-02T00:41:59;101962.00;;;20.10
23208;BMP180;11773;52.570;13.052;2022-09-02T00:44:28;101954.00;;;20.10
23208;BMP180;11773;52.570;13.052;2022-09-02T00:46:58;101965.00;;;20.10
23208;BMP180;11773;52.570;13.052;2022-09-02T00:49:32;101966.00;;;20.10
23208;BMP180;11773;52.570;13.052;2022-09-02T00:52:44;101962.00;;;20.00
23208;BMP180;11773;52.570;13.052;2022-09-02T00:55:05;101955.00;;;20.00
23208;BMP180;11773;52.570;13.052;2022-09-02T00:57:43;101950.00;;;19.90
23208;BMP180;11773;52.570;13.052;2022-09-02T01:00:27;101955.00;;;19.90
23208;BMP180;11773;52.570;13.052;2022-09-02T01:03:00;101961.00;;;19.90
23208;BMP180;11773;52.570;13.052;2022-09-02T01:05:34;101966.00;;;19.90
23208;BMP180;11773;52.570;13.052;2022-09-02T01:08:06;101960.00;;;19.90
23208;BMP180;11773;52.570;13.052;2022-09-02T01:10:36;101947.00;;;19.80
23208;BMP180;11773;52.570;13.052;2022-09-02T01:13:11;101947.00;;;19.80
23208;BMP180;11773;52.570;13.052;2022-09-02T01:15:52;101948.00;;;19.80
23208;BMP180;11773;52.570;13.052;2022-09-02T01:18:27;101941.00;;;19.80
23208;BMP180;11773;52.570;13.052;2022-09-02T01:20:52;101951.00;;;19.80
23208;BMP180;11773;52.570;13.052;2022-09-02T01:23:22;101937.00;;;19.70
23208;BMP180;11773;52.570;13.052;2022-09-02T01:25:52;101941.00;;;19.80
23208;BMP180;11773;52.570;13.052;2022-09-02T01:28:22;101935.00;;;19.70
23208;BMP180;11773;52.570;13.052;2022-09-02T01:30:54;101929.00;;;19.70
23208;BMP180;11773;52.570;13.052;2022-09-02T01:33:24;101927.00;;;19.70
23208;BMP180;11773;52.570;13.052;2022-09-02T01:35:54;101930.00;;;19.70
23208;BMP180;11773;52.570;13.052;2022-09-02T01:38:24;101931.00;;;19.70
23208;BMP180;11773;52.570;13.052;2022-09-02T01:40:54;101931.00;;;19.70
23208;BMP180;11773;52.570;13.052;2022-09-02T01:43:26;101930.00;;;19.80
23208;BMP180;11773;52.570;13.052;2022-09-02T01:45:58;101948.00;;;19.70
23208;BMP180;11773;52.570;13.052;2022-09-02T01:48:28;101944.00;;;19.80
23208;BMP180;11773;52.570;13.052;2022-09-02T01:51:02;101935.00;;;19.80
23208;BMP180;11773;52.570;13.052;2022-09-02T01:53:33;101932.00;;;19.80
23208;BMP180;11773;52.570;13.052;2022-09-02T01:56:02;101944.00;;;19.80
23208;BMP180;11773;52.570;13.052;2022-09-02T01:58:32;101933.00;;;19.80
23208;BMP180;11773;52.570;13.052;2022-09-02T02:01:02;101928.00;;;19.80
23208;BMP180;11773;52.570;13.052;2022-09-02T02:03:33;101927.00;;;19.80
23208;BMP180;11773;52.570;13.052;2022-09-02T02:06:14;101938.00;;;19.80
23208;BMP180;11773;52.570;13.052;2022-09-02T02:08:44;101936.00;;;19.80
23208;BMP180;11773;52.570;13.052;2022-09-02T02:11:22;101929.00;;;19.80
23208;BMP180;11773;52.570;13.052;2022-09-02T02:13:52;101919.00;;;19.80
23208;BMP180;11773;52.570;13.052;2022-09-02T02:16:22;101912.00;;;19.80
23208;BMP180;11773;52.570;13.052;2022-09-02T02:18:52;101932.00;;;19.80
23208;BMP180;11773;52.570;13.052;2022-09-02T02:21:22;101924.00;;;19.80
23208;BMP180;11773;52.570;13.052;2022-09-02T02:23:52;101922.00;;;19.80
23208;BMP180;11773;52.570;13.052;2022-09-02T02:26:22;101916.00;;;19.90
23208;BMP180;11773;52.570;13.052;2022-09-02T02:28:52;101923.00;;;19.90
23208;BMP180;11773;52.570;13.052;2022-09-02T02:31:21;101904.00;;;19.90
23208;BMP180;11773;52.570;13.052;2022-09-02T02:33:52;101916.00;;;19.90
23208;BMP180;11773;52.570;13.052;2022-09-02T02:36:22;101929.00;;;19.90
23208;BMP180;11773;52.570;13.052;2022-09-02T02:38:51;101926.00;;;19.90
23208;BMP180;11773;52.570;13.052;2022-09-02T02:41:21;101920.00;;;19.90
23208;BMP180;11773;52.570;13.052;2022-09-02T02:43:51;101913.00;;;19.90
23208;BMP180;11773;52.570;13.052;2022-09-02T02:46:20;101916.00;;;19.90
23208;BMP180;11773;52.570;13.052;2022-09-02T02:48:50;101915.00;;;19.90
23208;BMP180;11773;52.570;13.052;2022-09-02T02:51:19;101908.00;;;19.90
23208;BMP180;11773;52.570;13.052;2022-09-02T02:53:49;101915.00;;;19.90
23208;BMP180;11773;52.570;13.052;2022-09-02T02:56:20;101920.00;;;19.90
23208;BMP180;11773;52.570;13.052;2022-09-02T02:58:50;101911.00;;;19.90
23208;BMP180;11773;52.570;13.052;2022-09-02T03:01:19;101914.00;;;19.90
23208;BMP180;11773;52.570;13.052;2022-09-02T03:03:49;101904.00;;;19.90
23208;BMP180;11773;52.570;13.052;2022-09-02T03:06:20;101911.00;;;19.90
23208;BMP180;11773;52.570;13.052;2022-09-02T03:08:51;101918.00;;;19.90
23208;BMP180;11773;52.570;13.052;2022-09-02T03:11:21;101911.00;;;19.90
23208;BMP180;11773;52.570;13.052;2022-09-02T03:13:51;101912.00;;;19.90
23208;BMP180;11773;52.570;13.052;2022-09-02T03:16:21;101912.00;;;19.90
23208;BMP180;11773;52.570;13.052;2022-09-02T03:18:51;101905.00;;;19.90
23208;BMP180;11773;52.570;13.052;2022-09-02T03:21:20;101909.00;;;19.80
23208;BMP180;11773;52.570;13.052;2022-09-02T03:23:50;101910.00;;;19.80
23208;BMP180;11773;52.570;13.052;2022-09-02T03:26:23;101902.00;;;19.80
23208;BMP180;11773;52.570;13.052;2022-09-02T03:28:55;101894.00;;;19.70
23208;BMP180;11773;52.570;13.052;2022-09-02T03:31:27;101907.00;;;19.70
23208;BMP180;11773;52.570;13.052;2022-09-02T03:33:56;101906.00;;;19.70
23208;BMP180;11773;52.570;13.052;2022-09-02T03:36:36;101907.00;;;19.70
23208;BMP180;11773;52.570;13.052;2022-09-02T03:39:08;101892.00;;;19.60
23208;BMP180;11773;52.570;13.052;2022-09-02T03:41:38;101898.00;;;19.60
23208;BMP180;11773;52.570;13.052;2022-09-02T03:44:11;101899.00;;;19.60
23208;BMP180;11773;52.570;13.052;2022-09-02T03:46:41;101895.00;;;19.60
23208;BMP180;11773;52.570;13.052;2022-09-02T03:49:10;101900.00;;;19.60
23208;BMP180;11773;52.570;13.052;2022-09-02T03:51:42;101898.00;;;19.50
23208;BMP180;11773;52.570;13.052;2022-09-02T03:54:12;101896.00;;;19.50
23208;BMP180;11773;52.570;13.052;2022-09-02T03:56:41;101904.00;;;19.50
23208;BMP180;11773;52.570;13.052;2022-09-02T03:59:12;101897.00;;;19.50
23208;BMP180;11773;52.570;13.052;2022-09-02T04:01:42;101896.00;;;19.50
23208;BMP180;11773;52.570;13.052;2022-09-02T04:04:12;101892.00;;;19.40
23208;BMP180;11773;52.570;13.052;2022-09-02T04:06:42;101896.00;;;19.40
23208;BMP180;11773;52.570;13.052;2022-09-02T04:09:11;101900.00;;;19.40
23208;BMP180;11773;52.570;13.052;2022-09-02T04:11:41;101911.00;;;19.40
23208;BMP180;11773;52.570;13.052;2022-09-02T04:14:10;101908.00;;;19.40
23208;BMP180;11773;52.570;13.052;2022-09-02T04:16:40;101896.00;;;19.30
23208;BMP180;11773;52.570;13.052;2022-09-02T04:19:10;101914.00;;;19.30
23208;BMP180;11773;52.570;13.052;2022-09-02T04:21:41;101898.00;;;19.30
23208;BMP180;11773;52.570;13.052;2022-09-02T04:24:11;101896.00;;;19.30
23208;BMP180;11773;52.570;13.052;2022-09-02T04:26:41;101908.00;;;19.30
23208;BMP180;11773;52.570;13.052;2022-09-02T04:29:12;101906.00;;;19.20
23208;BMP180;11773;52.570;13.052;2022-09-02T04:31:43;101900.00;;;19.20
23208;BMP180;11773;52.570;13.052;2022-09-02T04:34:13;101905.00;;;19.20
23208;BMP180;11773;52.570;13.052;2022-09-02T04:36:42;101909.00;;;19.20
23208;BMP180;11773;52.570;13.052;2022-09-02T04:39:12;101906.00;;;19.10
23208;BMP180;11773;52.570;13.052;2022-09-02T04:41:42;101912.00;;;19.10
23208;BMP180;11773;52.570;13.052;2022-09-02T04:44:12;101910.00;;;19.10
23208;BMP180;11773;52.570;13.052;2022-09-02T04:46:41;101899.00;;;19.10
23208;BMP180;11773;52.570;13.052;2022-09-02T04:49:11;101910.00;;;19.10
23208;BMP180;11773;52.570;13.052;2022-09-02T04:51:40;101902.00;;;19.10
23208;BMP180;11773;52.570;13.052;2022-09-02T04:54:10;101900.00;;;19.10
23208;BMP180;11773;52.570;13.052;2022-09-02T04:56:39;101900.00;;;19.10
23208;BMP180;11773;52.570;13.052;2022-09-02T04:59:09;101898.00;;;19.10
23208;BMP180;11773;52.570;13.052;2022-09-02T05:01:38;101908.00;;;19.00
23208;BMP180;11773;52.570;13.052;2022-09-02T05:04:10;101904.00;;;19.10
23208;BMP180;11773;52.570;13.052;2022-09-02T05:06:39;101901.00;;;19.10
23208;BMP180;11773;52.570;13.052;2022-09-02T05:09:11;101913.00;;;19.10
23208;BMP180;11773;52.570;13.052;2022-09-02T05:11:40;101903.00;;;19.10
23208;BMP180;11773;52.570;13.052;2022-09-02T05:14:10;101906.00;;;19.10
23208;BMP180;11773;52.570;13.052;2022-09-02T05:16:41;101902.00;;;19.10
23208;BMP180;11773;52.570;13.052;2022-09-02T05:19:11;101901.00;;;19.10
23208;BMP180;11773;52.570;13.052;2022-09-02T05:21:43;101921.00;;;19.10
23208;BMP180;11773;52.570;13.052;2022-09-02T05:24:14;101910.00;;;19.10
23208;BMP180;11773;52.570;13.052;2022-09-02T05:26:44;101920.00;;;19.10
23208;BMP180;11773;52.570;13.052;2022-09-02T05:29:14;101915.00;;;19.10
23208;BMP180;11773;52.570;13.052;2022-09-02T05:31:46;101925.00;;;19.10
23208;BMP180;11773;52.570;13.052;2022-09-02T05:34:17;101930.00;;;19.10
23208;BMP180;11773;52.570;13.052;2022-09-02T05:36:46;101933.00;;;19.10
23208;BMP180;11773;52.570;13.052;2022-09-02T05:39:16;101913.00;;;19.10
23208;BMP180;11773;52.570;13.052;2022-09-02T05:41:46;101916.00;;;19.10
23208;BMP180;11773;52.570;13.052;2022-09-02T05:44:15;101915.00;;;19.20
23208;BMP180;11773;52.570;13.052;2022-09-02T05:46:45;101919.00;;;19.20
23208;BMP180;11773;52.570;13.052;2022-09-02T05:49:16;101927.00;;;19.20
23208;BMP180;11773;52.570;13.052;2022-09-02T05:51:54;101918.00;;;19.30
23208;BMP180;11773;52.570;13.052;2022-09-02T05:54:31;101911.00;;;19.30
23208;BMP180;11773;52.570;13.052;2022-09-02T05:57:07;101914.00;;;19.30
23208;BMP180;11773;52.570;13.052;2022-09-02T05:59:39;101920.00;;;19.40
23208;BMP180;11773;52.570;13.052;2022-09-02T06:02:12;101927.00;;;19.40
23208;BMP180;11773;52.570;13.052;2022-09-02T06:04:46;101913.00;;;19.40
23208;BMP180;11773;52.570;13.052;2022-09-02T06:07:18;101916.00;;;19.40
23208;BMP180;11773;52.570;13.052;2022-09-02T06:09:49;101937.00;;;19.50
23208;BMP180;11773;52.570;13.052;2022-09-02T06:12:19;101930.00;;;19.50
23208;BMP180;11773;52.570;13.052;2022-09-02T06:14:49;101921.00;;;19.50
23208;BMP180;11773;52.570;13.052;2022-09-02T06:17:19;101939.00;;;19.60
23208;BMP180;11773;52.570;13.052;2022-09-02T06:19:48;101932.00;;;19.60
23208;BMP180;11773;52.570;13.052;2022-09-02T06:22:20;101930.00;;;19.70
23208;BMP180;11773;52.570;13.052;2022-09-02T06:24:49;101914.00;;;19.70
23208;BMP180;11773;52.570;13.052;2022-09-02T06:27:19;101921.00;;;19.70
23208;BMP180;11773;52.570;13.052;2022-09-02T06:29:49;101929.00;;;19.80
23208;BMP180;11773;52.570;13.052;2022-09-02T06:32:18;101926.00;;;19.80
23208;BMP180;11773;52.570;13.052;2022-09-02T06:34:48;101915.00;;;19.90
23208;BMP180;11773;52.570;13.052;2022-09-02T06:37:18;101924.00;;;19.90
23208;BMP180;11773;52.570;13.052;2022-09-02T06:39:47;101921.00;;;19.90
23208;BMP180;11773;52.570;13.052;2022-09-02T06:42:17;101917.00;;;20.00
23208;BMP180;11773;52.570;13.052;2022-09-02T06:44:46;101929.00;;;20.10
23208;BMP180;11773;52.570;13.052;2022-09-02T06:47:16;101915.00;;;20.10
23208;BMP180;11773;52.570;13.052;2022-09-02T06:49:46;101920.00;;;20.20
23208;BMP180;11773;52.570;13.052;2022-09-02T06:52:15;101923.00;;;20.30
23208;BMP180;11773;52.570;13.052;2022-09-02T06:54:45;101904.00;;;20.40
23208;BMP180;11773;52.570;13.052;2022-09-02T06:57:16;101917.00;;;20.40
23208;BMP180;11773;52.570;13.052;2022-09-02T06:59:46;101929.00;;;20.50
23208;BMP180;11773;52.570;13.052;2022-09-02T07:02:16;101907.00;;;20.60
23208;BMP180;11773;52.570;13.052;2022-09-02T07:04:46;101911.00;;;20.60
23208;BMP180;11773;52.570;13.052;2022-09-02T07:07:36;101912.00;;;20.60
23208;BMP180;11773;52.570;13.052;2022-09-02T07:10:10;101911.00;;;20.70
23208;BMP180;11773;52.570;13.052;2022-09-02T07:12:40;101916.00;;;20.70
23208;BMP180;11773;52.570;13.052;2022-09-02T07:15:12;101922.00;;;20.80
23208;BMP180;11773;52.570;13.052;2022-09-02T07:17:41;101937.00;;;20.80
23208;BMP180;11773;52.570;13.052;2022-09-02T07:20:11;101934.00;;;20.80
23208;BMP180;11773;52.570;13.052;2022-09-02T07:22:41;101921.00;;;20.90
23208;BMP180;11773;52.570;13.052;2022-09-02T07:25:11;101915.00;;;20.90
23208;BMP180;11773;52.570;13.052;2022-09-02T07:27:41;101931.00;;;21.00
23208;BMP180;11773;52.570;13.052;2022-09-02T07:30:12;101932.00;;;21.10
23208;BMP180;11773;52.570;13.052;2022-09-02T07:32:42;101940.00;;;21.30
23208;BMP180;11773;52.570;13.052;2022-09-02T07:35:12;101919.00;;;21.40
23208;BMP180;11773;52.570;13.052;2022-09-02T07:37:42;101923.00;;;21.50
23208;BMP180;11773;52.570;13.052;2022-09-02T07:40:12;101928.00;;;21.70
23208;BMP180;11773;52.570;13.052;2022-09-02T07:42:43;101921.00;;;21.90
23208;BMP180;11773;52.570;13.052;2022-09-02T07:45:13;101925.00;;;22.10
23208;BMP180;11773;52.570;13.052;2022-09-02T07:47:43;101937.00;;;22.30
23208;BMP180;11773;52.570;13.052;2022-09-02T07:50:13;101925.00;;;22.50
23208;BMP180;11773;52.570;13.052;2022-09-02T07:52:45;101927.00;;;22.60
23208;BMP180;11773;52.570;13.052;2022-09-02T07:55:16;101925.00;;;22.80
23208;BMP180;11773;52.570;13.052;2022-09-02T07:57:46;101924.00;;;23.00
23208;BMP180;11773;52.570;13.052;2022-09-02T08:00:18;101923.00;;;23.20
23208;BMP180;11773;52.570;13.052;2022-09-02T08:02:48;101921.00;;;23.40
23208;BMP180;11773;52.570;13.052;2022-09-02T08:05:18;101918.00;;;23.50
23208;BMP180;11773;52.570;13.052;2022-09-02T08:07:48;101930.00;;;23.70
23208;BMP180;11773;52.570;13.052;2022-09-02T08:10:18;101939.00;;;23.80
23208;BMP180;11773;52.570;13.052;2022-09-02T08:12:48;101935.00;;;23.90
23208;BMP180;11773;52.570;13.052;2022-09-02T08:15:18;101922.00;;;24.00
23208;BMP180;11773;52.570;13.052;2022-09-02T08:17:49;101927.00;;;24.20
23208;BMP180;11773;52.570;13.052;2022-09-02T08:20:19;101926.00;;;24.20
23208;BMP180;11773;52.570;13.052;2022-09-02T08:22:50;101938.00;;;24.30
23208;BMP180;11773;52.570;13.052;2022-09-02T08:25:21;101939.00;;;24.40
23208;BMP180;11773;52.570;13.052;2022-09-02T08:27:53;101939.00;;;24.50
23208;BMP180;11773;52.570;13.052;2022-09-02T08:30:22;101935.00;;;24.60
23208;BMP180;11773;52.570;13.052;2022-09-02T08:32:52;101927.00;;;24.60
23208;BMP180;11773;52.570;13.052;2022-09-02T08:35:22;101932.00;;;24.70
23208;BMP180;11773;52.570;13.052;2022-09-02T08:37:51;101932.00;;;24.70
23208;BMP180;11773;52.570;13.052;2022-09-02T08:40:27;101942.00;;;24.80
23208;BMP180;11773;52.570;13.052;2022-09-02T08:42:56;101935.00;;;24.80
23208;BMP180;11773;52.570;13.052;2022-09-02T08:45:40;101930.00;;;24.80
23208;BMP180;11773;52.570;13.052;2022-09-02T08:48:19;101920.00;;;24.90
23208;BMP180;11773;52.570;13.052;2022-09-02T08:50:52;101930.00;;;24.90
23208;BMP180;11773;52.570;13.052;2022-09-02T08:53:30;101931.00;;;25.00
23208;BMP180;11773;52.570;13.052;2022-09-02T08:56:03;101919.00;;;25.00
23208;BMP180;11773;52.570;13.052;2022-09-02T08:58:40;101922.00;;;25.10
23208;BMP180;11773;52.570;13.052;2022-09-02T09:04:56;101908.00;;;25.20
23208;BMP180;11773;52.570;13.052;2022-09-02T09:10:47;101906.00;;;25.30
23208;BMP180;11773;52.570;13.052;2022-09-02T09:13:39;101915.00;;;25.40
23208;BMP180;11773;52.570;13.052;2022-09-02T09:16:18;101914.00;;;25.40
23208;BMP180;11773;52.570;13.052;2022-09-02T09:19:13;101908.00;;;25.50
23208;BMP180;11773;52.570;13.052;2022-09-02T09:21:40;101900.00;;;25.60
23208;BMP180;11773;52.570;13.052;2022-09-02T09:24:27;101909.00;;;25.60
23208;BMP180;11773;52.570;13.052;2022-09-02T09:26:57;101891.00;;;25.70
23208;BMP180;11773;52.570;13.052;2022-09-02T09:29:31;101903.00;;;25.80
23208;BMP180;11773;52.570;13.052;2022-09-02T09:32:01;101893.00;;;25.80
23208;BMP180;11773;52.570;13.052;2022-09-02T09:37:42;101898.00;;;25.90
23208;BMP180;11773;52.570;13.052;2022-09-02T09:40:26;101910.00;;;26.00
23208;BMP180;11773;52.570;13.052;2022-09-02T09:45:46;101894.00;;;26.00
23208;BMP180;11773;52.570;13.052;2022-09-02T09:48:27;101886.00;;;26.10
23208;BMP180;11773;52.570;13.052;2022-09-02T09:53:35;101899.00;;;26.20
23208;BMP180;11773;52.570;13.052;2022-09-02T09:58:47;101880.00;;;26.40
23208;BMP180;11773;52.570;13.052;2022-09-02T10:01:21;101877.00;;;26.40
23208;BMP180;11773;52.570;13.052;2022-09-02T10:04:01;101875.00;;;26.40
23208;BMP180;11773;52.570;13.052;2022-09-02T10:06:43;101872.00;;;26.40
23208;BMP180;11773;52.570;13.052;2022-09-02T10:12:00;101864.00;;;26.50
23208;BMP180;11773;52.570;13.052;2022-09-02T10:14:47;101877.00;;;26.50
23208;BMP180;11773;52.570;13.052;2022-09-02T10:20:56;101854.00;;;26.50
23208;BMP180;11773;52.570;13.052;2022-09-02T10:23:40;101857.00;;;26.50
23208;BMP180;11773;52.570;13.052;2022-09-02T10:26:22;101850.00;;;26.60
23208;BMP180;11773;52.570;13.052;2022-09-02T10:40:51;101854.00;;;26.80
23208;BMP180;11773;52.570;13.052;2022-09-02T10:46:34;101852.00;;;26.90
23208;BMP180;11773;52.570;13.052;2022-09-02T10:52:08;101838.00;;;27.00
23208;BMP180;11773;52.570;13.052;2022-09-02T10:54:51;101845.00;;;27.00
23208;BMP180;11773;52.570;13.052;2022-09-02T10:57:29;101843.00;;;27.10
23208;BMP180;11773;52.570;13.052;2022-09-02T11:00:14;101848.00;;;27.10
23208;BMP180;11773;52.570;13.052;2022-09-02T11:02:50;101844.00;;;27.20
23208;BMP180;11773;52.570;13.052;2022-09-02T11:05:48;101841.00;;;27.20
23208;BMP180;11773;52.570;13.052;2022-09-02T11:08:34;101847.00;;;27.20
23208;BMP180;11773;52.570;13.052;2022-09-02T11:14:30;101834.00;;;27.20
23208;BMP180;11773;52.570;13.052;2022-09-02T11:17:28;101838.00;;;27.20
23208;BMP180;11773;52.570;13.052;2022-09-02T11:19:48;101831.00;;;27.20
23208;BMP180;11773;52.570;13.052;2022-09-02T11:22:51;101835.00;;;27.20
23208;BMP180;11773;52.570;13.052;2022-09-02T11:28:25;101833.00;;;27.10
23208;BMP180;11773;52.570;13.052;2022-09-02T11:31:27;101838.00;;;27.00
23208;BMP180;11773;52.570;13.052;2022-09-02T11:37:13;101834.00;;;26.90
23208;BMP180;11773;52.570;13.052;2022-09-02T11:39:54;101824.00;;;26.90
23208;BMP180;11773;52.570;13.052;2022-09-02T11:45:42;101823.00;;;26.80
23208;BMP180;11773;52.570;13.052;2022-09-02T11:54:24;101811.00;;;26.90
23208;BMP180;11773;52.570;13.052;2022-09-02T11:57:01;101825.00;;;26.90
23208;BMP180;11773;52.570;13.052;2022-09-02T12:05:43;101820.00;;;27.00
23208;BMP180;11773;52.570;13.052;2022-09-02T12:11:07;101810.00;;;27.10
23208;BMP180;11773;52.570;13.052;2022-09-02T12:13:44;101797.00;;;27.10
23208;BMP180;11773;52.570;13.052;2022-09-02T12:21:28;101790.00;;;27.10
23208;BMP180;11773;52.570;13.052;2022-09-02T12:24:02;101778.00;;;27.10
23208;BMP180;11773;52.570;13.052;2022-09-02T12:31:52;101791.00;;;27.10
23208;BMP180;11773;52.570;13.052;2022-09-02T12:37:01;101776.00;;;27.10
23208;BMP180;11773;52.570;13.052;2022-09-02T12:42:29;101770.00;;;27.10
23208;BMP180;11773;52.570;13.052;2022-09-02T12:45:13;101754.00;;;27.10
23208;BMP180;11773;52.570;13.052;2022-09-02T12:48:06;101762.00;;;27.20
23208;BMP180;11773;52.570;13.052;2022-09-02T12:50:52;101767.00;;;27.20
23208;BMP180;11773;52.570;13.052;2022-09-02T12:53:42;101776.00;;;27.20
23208;BMP180;11773;52.570;13.052;2022-09-02T12:56:23;101766.00;;;27.20
23208;BMP180;11773;52.570;13.052;2022-09-02T12:58:57;101755.00;;;27.20
23208;BMP180;11773;52.570;13.052;2022-09-02T13:01:51;101763.00;;;27.20
23208;BMP180;11773;52.570;13.052;2022-09-02T13:04:40;101768.00;;;27.20
23208;BMP180;11773;52.570;13.052;2022-09-02T13:13:47;101751.00;;;27.20
23208;BMP180;11773;52.570;13.052;2022-09-02T13:16:27;101759.00;;;27.20
23208;BMP180;11773;52.570;13.052;2022-09-02T13:22:06;101749.00;;;27.40
23208;BMP180;11773;52.570;13.052;2022-09-02T13:30:20;101745.00;;;27.40
23208;BMP180;11773;52.570;13.052;2022-09-02T13:32:57;101748.00;;;27.40
23208;BMP180;11773;52.570;13.052;2022-09-02T13:35:28;101731.00;;;27.50
23208;BMP180;11773;52.570;13.052;2022-09-02T13:37:59;101739.00;;;27.50
23208;BMP180;11773;52.570;13.052;2022-09-02T13:40:33;101730.00;;;27.50
23208;BMP180;11773;52.570;13.052;2022-09-02T13:43:16;101734.00;;;27.50
23208;BMP180;11773;52.570;13.052;2022-09-02T13:45:48;101719.00;;;27.50
23208;BMP180;11773;52.570;13.052;2022-09-02T13:48:27;101714.00;;;27.50
23208;BMP180;11773;52.570;13.052;2022-09-02T13:50:55;101720.00;;;27.60
23208;BMP180;11773;52.570;13.052;2022-09-02T13:53:39;101720.00;;;27.60
23208;BMP180;11773;52.570;13.052;2022-09-02T13:56:14;101712.00;;;27.70
23208;BMP180;11773;52.570;13.052;2022-09-02T13:58:50;101705.00;;;27.70
23208;BMP180;11773;52.570;13.052;2022-09-02T14:01:36;101710.00;;;27.70
23208;BMP180;11773;52.570;13.052;2022-09-02T14:04:14;101695.00;;;27.70
23208;BMP180;11773;52.570;13.052;2022-09-02T14:06:47;101690.00;;;27.70
23208;BMP180;11773;52.570;13.052;2022-09-02T14:09:27;101691.00;;;27.70
23208;BMP180;11773;52.570;13.052;2022-09-02T14:11:58;101706.00;;;27.70
23208;BMP180;11773;52.570;13.052;2022-09-02T14:14:29;101699.00;;;27.70
23208;BMP180;11773;52.570;13.052;2022-09-02T14:17:24;101699.00;;;27.70
23208;BMP180;11773;52.570;13.052;2022-09-02T14:22:58;101688.00;;;27.70
23208;BMP180;11773;52.570;13.052;2022-09-02T14:25:34;101679.00;;;27.70
23208;BMP180;11773;52.570;13.052;2022-09-02T14:28:09;101682.00;;;27.80
23208;BMP180;11773;52.570;13.052;2022-09-02T14:30:41;101682.00;;;27.80
23208;BMP180;11773;52.570;13.052;2022-09-02T14:38:51;101682.00;;;27.70
23208;BMP180;11773;52.570;13.052;2022-09-02T14:41:33;101674.00;;;27.70
23208;BMP180;11773;52.570;13.052;2022-09-02T14:44:28;101682.00;;;27.70
23208;BMP180;11773;52.570;13.052;2022-09-02T14:47:11;101678.00;;;27.60
23208;BMP180;11773;52.570;13.052;2022-09-02T14:49:51;101685.00;;;27.50
23208;BMP180;11773;52.570;13.052;2022-09-02T14:52:20;101678.00;;;27.50
23208;BMP180;11773;52.570;13.052;2022-09-02T14:54:56;101687.00;;;27.50
23208;BMP180;11773;52.570;13.052;2022-09-02T14:57:34;101669.00;;;27.50
23208;BMP180;11773;52.570;13.052;2022-09-02T15:00:08;101669.00;;;27.50
23208;BMP180;11773;52.570;13.052;2022-09-02T15:02:42;101682.00;;;27.50
23208;BMP180;11773;52.570;13.052;2022-09-02T15:05:14;101678.00;;;27.50
23208;BMP180;11773;52.570;13.052;2022-09-02T15:07:44;101689.00;;;27.50
23208;BMP180;11773;52.570;13.052;2022-09-02T15:10:13;101671.00;;;27.50
23208;BMP180;11773;52.570;13.052;2022-09-02T15:12:51;101684.00;;;27.50
23208;BMP180;11773;52.570;13.052;2022-09-02T15:15:22;101678.00;;;27.50
23208;BMP180;11773;52.570;13.052;2022-09-02T15:17:52;101683.00;;;27.50
23208;BMP180;11773;52.570;13.052;2022-09-02T15:20:23;101682.00;;;27.50
23208;BMP180;11773;52.570;13.052;2022-09-02T15:22:55;101685.00;;;27.50
23208;BMP180;11773;52.570;13.052;2022-09-02T15:25:25;101672.00;;;27.40
23208;BMP180;11773;52.570;13.052;2022-09-02T15:27:54;101675.00;;;27.40
23208;BMP180;11773;52.570;13.052;2022-09-02T15:30:24;101671.00;;;27.40
23208;BMP180;11773;52.570;13.052;2022-09-02T15:32:54;101672.00;;;27.40
23208;BMP180;11773;52.570;13.052;2022-09-02T15:35:23;101665.00;;;27.40
23208;BMP180;11773;52.570;13.052;2022-09-02T15:37:53;101667.00;;;27.40
23208;BMP180;11773;52.570;13.052;2022-09-02T15:40:23;101667.00;;;27.40
23208;BMP180;11773;52.570;13.052;2022-09-02T15:42:53;101660.00;;;27.40
23208;BMP180;11773;52.570;13.052;2022-09-02T15:45:23;101662.00;;;27.40
23208;BMP180;11773;52.570;13.052;2022-09-02T15:47:58;101663.00;;;27.40
23208;BMP180;11773;52.570;13.052;2022-09-02T15:50:30;101672.00;;;27.40
23208;BMP180;11773;52.570;13.052;2022-09-02T15:53:01;101676.00;;;27.40
23208;BMP180;11773;52.570;13.052;2022-09-02T15:55:34;101678.00;;;27.40
23208;BMP180;11773;52.570;13.052;2022-09-02T15:58:04;101662.00;;;27.40
23208;BMP180;11773;52.570;13.052;2022-09-02T16:00:34;101670.00;;;27.40
23208;BMP180;11773;52.570;13.052;2022-09-02T16:03:04;101656.00;;;27.30
23208;BMP180;11773;52.570;13.052;2022-09-02T16:05:34;101655.00;;;27.30
23208;BMP180;11773;52.570;13.052;2022-09-02T16:08:04;101654.00;;;27.30